Time;durP1;ratioP1;P1;durP2;ratioP2;P2;SDS_P1;SDS_P2;PMS_P1;PMS_P2;Temp;Humidity;BMP_temperature;BMP_pressure;BME280_temperature;BME280_humidity;BME280_pressure;Samples;Min_cycle;Max_cycle;Signal;HPM_P1;HPM_P2
2022/09/05 00:01:35;;;;;;;47.17;43.83;;;;;;;13.98;100.00;101856.34;5046904;28;20056;-81
2022/09/05 00:04:11;;;;;;;46.00;42.60;;;;;;;14.16;100.00;101853.94;5053296;28;20053;-79
2022/09/05 00:06:43;;;;;;;42.63;39.25;;;;;;;13.99;100.00;101847.31;5045624;28;20440;-79
2022/09/05 00:09:15;;;;;;;45.40;41.97;;;;;;;13.87;100.00;101859.59;5043857;28;20045;-83
2022/09/05 00:11:48;;;;;;;43.25;40.08;;;;;;;13.80;100.00;101856.91;5053982;28;20056;-81
2022/09/05 00:14:37;;;;;;;45.03;41.45;;;;;;;13.96;100.00;101856.53;5053403;28;20136;-80
2022/09/05 00:17:13;;;;;;;44.65;41.22;;;;;;;14.09;100.00;101849.56;5053148;28;20045;-79
2022/09/05 00:19:57;;;;;;;45.13;41.30;;;;;;;14.18;100.00;101859.06;5050623;28;20053;-79
2022/09/05 00:22:37;;;;;;;42.22;39.03;;;;;;;13.91;100.00;101852.81;5050349;28;20041;-78
2022/09/05 00:25:36;;;;;;;43.25;39.72;;;;;;;13.92;100.00;101847.28;5050375;28;20060;-78
2022/09/05 00:28:12;;;;;;;44.58;41.20;;;;;;;13.80;100.00;101854.22;5050933;28;20049;-81
2022/09/05 00:30:58;;;;;;;42.05;38.63;;;;;;;13.36;100.00;101846.63;5050916;28;20130;-78
2022/09/05 00:33:38;;;;;;;45.67;42.17;;;;;;;13.76;100.00;101850.28;5050293;28;20041;-81
2022/09/05 00:36:23;;;;;;;42.25;39.13;;;;;;;13.74;100.00;101849.69;5044213;28;20076;-79
2022/09/05 00:39:16;;;;;;;43.40;39.92;;;;;;;13.69;100.00;101858.28;5050335;28;20128;-79
2022/09/05 00:41:46;;;;;;;41.78;38.25;;;;;;;13.66;100.00;101855.19;5052518;28;20110;-81
2022/09/05 00:44:14;;;;;;;44.70;40.88;;;;;;;13.60;100.00;101861.31;5051230;28;20402;-79
2022/09/05 00:46:53;;;;;;;44.20;40.78;;;;;;;13.50;100.00;101865.16;5049208;28;20060;-79
2022/09/05 00:49:24;;;;;;;47.00;43.35;;;;;;;13.56;100.00;101860.06;5050590;28;20041;-79
2022/09/05 00:51:58;;;;;;;43.97;40.78;;;;;;;13.45;100.00;101861.44;5055865;28;20045;-81
2022/09/05 00:54:43;;;;;;;41.15;38.05;;;;;;;13.24;100.00;101873.81;5053849;28;20048;-79
2022/09/05 00:57:35;;;;;;;40.50;37.33;;;;;;;13.18;100.00;101873.75;5055613;28;20037;-78
2022/09/05 01:00:13;;;;;;;40.80;37.65;;;;;;;13.30;100.00;101872.22;5054614;28;20041;-79
2022/09/05 01:03:08;;;;;;;51.03;47.40;;;;;;;13.60;100.00;101861.31;5055128;28;20044;-78
2022/09/05 01:06:16;;;;;;;43.22;40.20;;;;;;;13.68;100.00;101869.97;5048294;28;20057;-78
2022/09/05 01:09:11;;;;;;;41.67;38.15;;;;;;;13.41;100.00;101865.53;5052483;28;20111;-81
2022/09/05 01:11:49;;;;;;;39.67;36.38;;;;;;;13.16;100.00;101868.63;5054353;28;20048;-82
2022/09/05 01:14:42;;;;;;;43.85;40.65;;;;;;;13.15;100.00;101874.97;5053583;28;20146;-78
2022/09/05 01:17:25;;;;;;;44.90;41.38;;;;;;;13.61;100.00;101874.44;5055523;28;20477;-78
2022/09/05 01:20:04;;;;;;;;;;;;;;;13.44;100.00;101868.63;5056757;28;20055;-83
2022/09/05 01:22:58;;;;;;;43.30;40.03;;;;;;;13.40;100.00;101869.19;5056659;28;20281;-78
2022/09/05 01:25:38;;;;;;;44.88;41.65;;;;;;;13.11;100.00;101867.56;5055405;28;20045;-80
2022/09/05 01:28:14;;;;;;;39.45;36.45;;;;;;;13.00;100.00;101871.59;5057233;28;20458;-80
2022/09/05 01:30:46;;;;;;;40.05;36.85;;;;;;;13.21;100.00;101871.53;5055444;28;20114;-79
2022/09/05 01:33:25;;;;;;;40.97;37.42;;;;;;;13.22;100.00;101867.84;5055703;28;20067;-78
2022/09/05 01:36:20;;;;;;;41.85;38.60;;;;;;;13.38;100.00;101848.06;5056275;28;20049;-81
2022/09/05 01:38:57;;;;;;;41.05;37.80;;;;;;;13.42;100.00;101857.31;5055777;28;20057;-81
2022/09/05 01:41:33;;;;;;;40.90;37.50;;;;;;;13.15;100.00;101858.16;5055484;28;20063;-83
2022/09/05 01:44:29;;;;;;;44.78;41.28;;;;;;;13.20;100.00;101869.88;5055983;28;20044;-82
2022/09/05 01:47:07;;;;;;;49.28;45.67;;;;;;;13.17;100.00;101866.78;5056594;28;20421;-79
2022/09/05 01:49:56;;;;;;;46.60;42.85;;;;;;;13.24;100.00;101862.31;5056546;28;20048;-81
2022/09/05 01:52:39;;;;;;;47.47;43.85;;;;;;;13.23;100.00;101860.66;5055684;28;20478;-82
2022/09/05 01:55:23;;;;;;;;;;;;;;;12.70;100.00;101854.94;5054517;28;20466;-81
2022/09/05 01:58:02;;;;;;;42.10;38.80;;;;;;;12.71;100.00;101853.91;5055307;28;19929;-81
2022/09/05 02:03:19;;;;;;;43.25;39.75;;;;;;;12.74;100.00;101858.88;5059922;28;20045;-78
2022/09/05 02:06:22;;;;;;;45.95;42.45;;;;;;;12.61;100.00;101860.38;5065661;28;20132;-82
2022/09/05 02:09:15;;;;;;;44.90;41.50;;;;;;;12.82;100.00;101854.22;5049226;28;20055;-81
2022/09/05 02:11:49;;;;;;;44.50;41.03;;;;;;;12.96;100.00;101841.81;5066072;28;20053;-83
2022/09/05 02:14:35;;;;;;;39.63;36.20;;;;;;;12.41;100.00;101846.06;5068681;28;20385;-78
2022/09/05 02:17:20;;;;;;;40.40;37.13;;;;;;;12.30;100.00;101846.56;5061187;28;20049;-81
2022/09/05 02:20:00;;;;;;;39.58;36.38;;;;;;;11.97;100.00;101852.38;5062727;28;20107;-79
2022/09/05 02:22:34;;;;;;;42.55;39.38;;;;;;;12.40;100.00;101855.06;5068796;28;20484;-77
2022/09/05 02:25:06;;;;;;;41.40;38.20;;;;;;;12.44;100.00;101847.53;5066421;28;20049;-81
2022/09/05 02:27:41;;;;;;;43.50;39.83;;;;;;;12.43;100.00;101851.19;5064106;28;20114;-81
2022/09/05 02:30:10;;;;;;;42.25;38.95;;;;;;;12.34;100.00;101854.00;5062584;28;20045;-81
2022/09/05 02:32:55;;;;;;;40.15;36.95;;;;;;;12.43;100.00;101853.88;5065019;28;20048;-82
2022/09/05 02:35:30;;;;;;;41.75;38.55;;;;;;;12.55;100.00;101857.66;5071724;28;20500;-81
2022/09/05 02:38:04;;;;;;;41.08;37.78;;;;;;;12.09;100.00;101861.50;5066561;28;20049;-78
2022/09/05 02:40:39;;;;;;;41.83;38.70;;;;;;;12.47;100.00;101852.50;5066501;28;20044;-78
2022/09/05 02:43:15;;;;;;;41.65;38.30;;;;;;;12.30;100.00;101846.56;5062416;28;20057;-81
2022/09/05 02:45:57;;;;;;;38.17;35.10;;;;;;;12.19;100.00;101847.88;5063868;28;20135;-78
2022/09/05 02:48:32;;;;;;;40.38;37.10;;;;;;;12.34;100.00;101846.03;5065918;28;20049;-81
2022/09/05 02:51:25;;;;;;;43.30;39.70;;;;;;;12.38;100.00;101844.63;5063993;28;20485;-80
2022/09/05 02:53:57;;;;;;;40.28;36.88;;;;;;;12.27;100.00;101852.28;5061912;28;20060;-79
2022/09/05 02:56:37;;;;;;;39.50;36.30;;;;;;;12.08;100.00;101856.38;5064270;28;20409;-81
2022/09/05 02:59:15;;;;;;;41.05;37.83;;;;;;;12.05;100.00;101852.25;5063590;28;20057;-79
2022/09/05 03:01:58;;;;;;;40.20;37.00;;;;;;;12.44;100.00;101856.34;5065767;28;20053;-82
2022/09/05 03:04:37;;;;;;;38.60;35.50;;;;;;;11.87;100.00;101859.84;5065991;28;20111;-80
2022/09/05 03:07:31;;;;;;;40.78;37.15;;;;;;;11.77;100.00;101867.22;5065982;28;20087;-81
2022/09/05 03:10:24;;;;;;;42.30;38.75;;;;;;;11.67;100.00;101865.69;5064525;28;20056;-79
2022/09/05 03:13:31;;;;;;;43.72;40.35;;;;;;;11.94;100.00;101873.22;5057431;28;20044;-81
2022/09/05 03:16:32;;;;;;;50.28;46.58;;;;;;;12.12;100.00;101877.13;5043616;28;20049;-78
2022/09/05 03:19:32;;;;;;;41.97;38.60;;;;;;;11.67;100.00;101870.19;5060942;28;20395;-79
2022/09/05 03:22:30;;;;;;;45.85;42.05;;;;;;;12.11;100.00;101877.31;5054712;28;20049;-80
2022/09/05 03:25:45;;;;;;;42.78;39.50;;;;;;;11.98;100.00;101877.16;5053894;28;20045;-82
2022/09/05 03:28:53;;;;;;;45.00;41.40;;;;;;;12.13;100.00;101884.13;5056111;28;20041;-81
2022/09/05 03:31:55;;;;;;;43.80;40.58;;;;;;;11.80;100.00;101885.50;5056811;28;20056;-78
2022/09/05 03:35:03;;;;;;;42.03;38.45;;;;;;;12.07;100.00;101884.88;5063856;28;20055;-81
2022/09/05 03:38:05;;;;;;;38.95;35.65;;;;;;;12.00;100.00;101886.59;5063191;28;20488;-81
2022/09/05 03:40:47;;;;;;;38.58;35.58;;;;;;;11.74;100.00;101889.75;5064798;28;20049;-81
2022/09/05 03:43:34;;;;;;;38.88;35.78;;;;;;;12.05;100.00;101896.72;5061514;28;20052;-81
2022/09/05 03:46:23;;;;;;;36.78;33.67;;;;;;;11.85;100.00;101893.78;5074314;28;20049;-78
2022/09/05 03:49:04;;;;;;;36.28;33.28;;;;;;;11.51;100.00;101895.16;5063512;28;20067;-78
2022/09/05 03:51:37;;;;;;;36.72;33.83;;;;;;;11.68;100.00;101906.44;5054894;28;20083;-80
2022/09/05 03:54:32;;;;;;;39.90;36.33;;;;;;;11.88;100.00;101907.56;5056658;28;20479;-81
2022/09/05 03:57:26;;;;;;;37.67;34.65;;;;;;;11.83;100.00;101906.41;5061781;28;20049;-81
2022/09/05 04:00:06;;;;;;;37.28;34.30;;;;;;;11.94;100.00;101915.81;5065377;28;20562;-80
2022/09/05 04:02:38;;;;;;;36.13;33.22;;;;;;;11.88;100.00;101915.53;5065884;28;20147;-78
2022/09/05 04:05:09;;;;;;;37.13;33.92;;;;;;;11.95;100.00;101912.94;5065753;28;20442;-78
2022/09/05 04:07:42;;;;;;;37.65;34.55;;;;;;;11.93;100.00;101911.50;5062969;28;20060;-78
2022/09/05 04:10:26;;;;;;;39.33;36.13;;;;;;;12.06;100.00;101925.78;5059554;28;20084;-78
2022/09/05 04:12:58;;;;;;;40.75;37.65;;;;;;;12.21;100.00;101925.78;5067960;28;20056;-79
2022/09/05 04:15:39;;;;;;;40.90;37.58;;;;;;;11.86;100.00;101916.72;5058542;28;20049;-82
2022/09/05 04:18:21;;;;;;;38.28;35.38;;;;;;;11.82;100.00;101926.91;5061894;28;20074;-78
2022/09/05 04:20:54;;;;;;;35.92;33.17;;;;;;;11.74;100.00;101931.47;5063874;28;20056;-81
2022/09/05 04:23:29;;;;;;;36.05;33.35;;;;;;;12.17;100.00;101940.50;5073048;28;20071;-81
2022/09/05 04:26:09;;;;;;;40.00;35.95;;;;;;;12.12;100.00;101934.88;5059433;28;20049;-79
2022/09/05 04:28:47;;;;;;;37.65;34.53;;;;;;;12.32;100.00;101927.13;5064447;28;20045;-79
2022/09/05 04:31:26;;;;;;;34.40;31.23;;;;;;;13.42;100.00;101926.69;5062579;28;20048;-84
2022/09/05 04:34:05;;;;;;;38.95;35.63;;;;;;;12.97;100.00;101939.47;5059087;28;20460;-84
2022/09/05 04:36:35;;;;;;;42.35;38.83;;;;;;;13.46;100.00;101935.13;5073344;28;20056;-81
2022/09/05 04:39:25;;;;;;;47.63;43.00;;;;;;;14.21;100.00;101934.28;5072003;28;20052;-81
2022/09/05 04:41:59;;;;;;;42.97;39.53;;;;;;;13.37;100.00;101937.13;5069728;28;20044;-79
2022/09/05 04:44:31;;;;;;;48.47;44.72;;;;;;;13.25;100.00;101942.19;5066493;28;20040;-79
2022/09/05 04:47:02;;;;;;;48.30;44.08;;;;;;;13.29;100.00;101942.63;5068511;28;20053;-81
2022/09/05 04:49:34;;;;;;;43.95;40.35;;;;;;;13.33;100.00;101938.53;5066333;28;20063;-80
2022/09/05 04:52:20;;;;;;;48.35;43.30;;;;;;;13.36;100.00;101932.00;5066339;28;20118;-78
2022/09/05 04:54:50;;;;;;;51.45;46.35;;;;;;;13.41;100.00;101934.91;5070311;28;20614;-78
2022/09/05 04:57:22;;;;;;;50.67;46.08;;;;;;;13.44;100.00;101932.69;5062247;28;20048;-80
2022/09/05 04:59:57;;;;;;;51.53;45.67;;;;;;;13.48;100.00;101935.78;5066415;28;20520;-79
2022/09/05 05:02:28;;;;;;;49.25;45.20;;;;;;;13.65;100.00;101931.78;5061779;28;20065;-81
2022/09/05 05:05:02;;;;;;;46.97;43.13;;;;;;;13.74;100.00;101935.94;5066161;28;20489;-78
2022/09/05 05:07:39;;;;;;;47.25;43.25;;;;;;;13.74;100.00;101943.13;5065361;28;20056;-81
2022/09/05 05:10:11;;;;;;;45.05;41.67;;;;;;;13.84;100.00;101950.78;5068013;28;20113;-80
2022/09/05 05:12:52;;;;;;;43.53;40.30;;;;;;;13.84;100.00;101950.78;5060273;28;20041;-78
2022/09/05 05:15:21;;;;;;;47.40;43.70;;;;;;;14.13;100.00;101942.50;5062662;28;20059;-82
2022/09/05 05:17:54;;;;;;;50.13;46.33;;;;;;;14.35;100.00;101947.72;5057025;28;20053;-80
2022/09/05 05:20:25;;;;;;;48.85;45.40;;;;;;;14.48;100.00;101947.72;5067773;28;20044;-78
2022/09/05 05:23:00;;;;;;;48.28;44.60;;;;;;;14.56;100.00;101941.41;5059110;28;20055;-81
2022/09/05 05:25:28;;;;;;;45.72;42.17;;;;;;;14.66;100.00;101952.53;5066414;28;20040;-78
2022/09/05 05:28:08;;;;;;;43.63;40.53;;;;;;;14.80;100.00;101958.75;5065992;28;20049;-81
2022/09/05 05:30:35;;;;;;;42.42;39.38;;;;;;;14.87;100.00;101960.38;5066525;28;20053;-79
2022/09/05 05:33:11;;;;;;;45.03;41.92;;;;;;;14.86;100.00;101955.25;5069661;28;20057;-81
2022/09/05 05:35:39;;;;;;;44.35;40.95;;;;;;;14.91;100.00;101955.44;5070269;28;20036;-81
2022/09/05 05:38:25;;;;;;;46.92;42.97;;;;;;;15.09;100.00;101958.34;5065063;28;20060;-81
2022/09/05 05:40:57;;;;;;;44.15;41.25;;;;;;;15.31;100.00;101956.28;5066708;28;20049;-80
2022/09/05 05:43:29;;;;;;;42.08;38.92;;;;;;;15.29;100.00;101962.88;5069785;28;20052;-82
2022/09/05 05:45:58;;;;;;;45.42;41.78;;;;;;;15.43;100.00;101964.53;5065703;28;20045;-81
2022/09/05 05:48:32;;;;;;;45.95;42.92;;;;;;;15.65;100.00;101957.06;5064836;28;20044;-82
2022/09/05 05:51:13;;;;;;;43.70;40.50;;;;;;;15.66;100.00;101961.38;5064819;28;20460;-82
2022/09/05 05:53:48;;;;;;;39.63;36.83;;;;;;;15.87;100.00;101957.63;5062087;28;20110;-78
2022/09/05 05:56:47;;;;;;;41.03;38.30;;;;;;;16.14;100.00;101953.00;5064967;28;20071;-79
2022/09/05 05:59:38;;;;;;;35.08;32.78;;;;;;;16.25;100.00;101959.56;5065160;28;20045;-78
2022/09/05 06:02:46;;;;;;;35.90;33.00;;;;;;;16.34;100.00;101952.09;5067912;28;20062;-78
2022/09/05 06:05:45;;;;;;;35.60;33.13;;;;;;;16.65;100.00;101951.31;5067834;28;20504;-81
2022/09/05 06:08:44;;;;;;;34.45;31.98;;;;;;;16.66;100.00;101951.06;5048711;28;20045;-81
2022/09/05 06:11:33;;;;;;;34.47;32.15;;;;;;;16.87;100.00;101959.84;5064582;28;20059;-78
2022/09/05 06:14:47;;;;;;;35.55;33.17;;;;;;;17.12;100.00;101957.97;5070408;28;20045;-81
2022/09/05 06:17:49;;;;;;;32.72;30.52;;;;;;;17.07;100.00;101957.03;4983776;28;20054;-81
2022/09/05 06:20:44;;;;;;;32.25;30.15;;;;;;;17.47;100.00;101957.47;5027201;28;20055;-80
2022/09/05 06:23:46;;;;;;;31.98;29.77;;;;;;;17.51;100.00;101953.28;5054161;28;20103;-81
2022/09/05 06:27:10;;;;;;;34.00;31.50;;;;;;;17.79;100.00;101960.91;5063138;28;20080;-82
2022/09/05 06:29:49;;;;;;;36.17;33.63;;;;;;;18.09;100.00;101965.50;5064932;28;20045;-81
2022/09/05 06:32:33;;;;;;;34.47;32.17;;;;;;;18.43;100.00;101966.72;5057688;28;20044;-81
2022/09/05 06:35:31;;;;;;;32.03;29.85;;;;;;;18.40;100.00;101969.06;5068159;28;20527;-81
2022/09/05 06:38:22;;;;;;;34.15;31.60;;;;;;;18.66;100.00;101974.03;5062492;28;20473;-81
2022/09/05 06:41:02;;;;;;;35.10;32.65;;;;;;;18.80;100.00;101971.19;5063491;28;20460;-81
2022/09/05 06:43:56;;;;;;;33.88;30.85;;;;;;;18.89;100.00;101965.25;5066038;28;20062;-81
2022/09/05 06:46:30;;;;;;;33.20;31.15;;;;;;;19.29;100.00;101967.28;5067469;28;20461;-81
2022/09/05 06:49:05;;;;;;;31.75;29.63;;;;;;;19.37;100.00;101974.22;5057188;28;20052;-81
2022/09/05 06:52:03;;;;;;;32.50;30.40;;;;;;;19.28;100.00;101968.34;5066989;28;20044;-79
2022/09/05 06:54:49;;;;;;;31.35;29.30;;;;;;;19.43;100.00;101965.19;5064126;28;20118;-81
2022/09/05 06:57:44;;;;;;;31.85;29.80;;;;;;;19.14;100.00;101970.44;5057452;28;20047;-81
2022/09/05 07:00:22;;;;;;;33.85;31.50;;;;;;;19.55;100.00;101978.66;5054499;28;20131;-79
2022/09/05 07:03:09;;;;;;;31.55;29.25;;;;;;;19.76;100.00;101978.09;5065213;28;20489;-80
2022/09/05 07:05:41;;;;;;;31.25;28.85;;;;;;;20.19;100.00;101976.81;5065100;28;20059;-82
2022/09/05 07:08:29;;;;;;;31.13;29.02;;;;;;;20.17;100.00;101970.81;5065975;28;20052;-82
2022/09/05 07:11:01;;;;;;;31.20;28.90;;;;;;;20.27;100.00;101975.59;5065069;28;20052;-83
2022/09/05 07:13:34;;;;;;;32.58;29.70;;;;;;;20.07;100.00;101976.84;5064203;28;20052;-83
2022/09/05 07:16:12;;;;;;;37.22;34.05;;;;;;;20.80;100.00;101980.66;5056865;28;20040;-78
2022/09/05 07:18:47;;;;;;;36.03;33.20;;;;;;;20.88;100.00;101970.50;5065371;28;20056;-81
2022/09/05 07:21:23;;;;;;;32.60;30.02;;;;;;;20.84;100.00;101983.69;5063037;28;20087;-77
2022/09/05 07:23:56;;;;;;;35.03;32.15;;;;;;;20.73;100.00;101985.41;5058999;28;20055;-78
2022/09/05 07:26:24;;;;;;;33.22;30.70;;;;;;;20.73;100.00;101982.69;5064139;28;20071;-78
2022/09/05 07:28:56;;;;;;;32.72;30.38;;;;;;;20.61;100.00;101981.94;5063777;28;20053;-80
2022/09/05 07:31:25;;;;;;;33.50;30.85;;;;;;;20.98;100.00;101992.28;5063169;28;20048;-78
2022/09/05 07:34:07;;;;;;;33.25;30.58;;;;;;;21.09;100.00;101977.06;5060200;28;20045;-78
2022/09/05 07:36:41;;;;;;;32.53;30.13;;;;;;;21.05;100.00;101977.56;5061907;28;20052;-80
2022/09/05 07:39:15;;;;;;;32.67;30.33;;;;;;;21.68;100.00;101972.03;5065163;28;20465;-80
2022/09/05 07:41:49;;;;;;;34.95;31.98;;;;;;;21.94;100.00;101982.13;5063673;28;20059;-78
2022/09/05 07:44:22;;;;;;;34.38;32.08;;;;;;;22.04;100.00;101980.59;5063455;28;20055;-77
2022/09/05 07:46:53;;;;;;;34.45;31.85;;;;;;;22.43;100.00;101980.53;5064480;28;20140;-80
2022/09/05 07:49:26;;;;;;;36.00;33.80;;;;;;;21.64;100.00;101976.31;5056683;28;20466;-79
2022/09/05 07:51:56;;;;;;;39.03;36.60;;;;;;;20.61;100.00;101978.44;5061592;28;20049;-78
2022/09/05 07:54:29;;;;;;;36.90;34.10;;;;;;;21.26;100.00;101984.09;5059073;28;20057;-79
2022/09/05 07:57:02;;;;;;;35.25;32.65;;;;;;;22.20;100.00;101985.13;5055421;28;20115;-78
2022/09/05 07:59:33;;;;;;;35.80;33.20;;;;;;;22.22;100.00;101980.31;5054017;28;20056;-78
2022/09/05 08:02:01;;;;;;;34.33;32.00;;;;;;;21.35;100.00;101989.91;5063734;28;20055;-77
2022/09/05 08:04:30;;;;;;;35.00;32.55;;;;;;;21.66;100.00;101980.38;5064563;28;20063;-81
2022/09/05 08:07:01;;;;;;;31.85;29.63;;;;;;;21.16;100.00;101983.94;5064546;28;20052;-80
2022/09/05 08:09:33;;;;;;;33.20;30.98;;;;;;;22.00;100.00;101985.72;5058834;28;20044;-80
2022/09/05 08:12:03;;;;;;;35.25;32.95;;;;;;;22.95;100.00;101980.78;5060143;28;20045;-77
2022/09/05 08:14:41;;;;;;;32.95;30.75;;;;;;;22.96;100.00;101979.69;5063107;28;20048;-78
2022/09/05 08:17:13;;;;;;;33.13;30.67;;;;;;;22.62;100.00;101981.78;5062156;28;20516;-80
2022/09/05 08:19:54;;;;;;;33.00;30.70;;;;;;;22.71;100.00;101976.75;5061778;28;20056;-81
2022/09/05 08:22:24;;;;;;;31.65;29.58;;;;;;;22.07;100.00;101990.91;5055171;28;20048;-77
2022/09/05 08:25:02;;;;;;;31.25;29.02;;;;;;;22.79;100.00;101979.00;5062053;28;20052;-80
2022/09/05 08:27:34;;;;;;;30.00;27.67;;;;;;;22.98;100.00;101974.03;5061779;28;20117;-78
2022/09/05 08:30:06;;;;;;;30.90;28.40;;;;;;;23.40;100.00;101978.66;5064961;28;20049;-76
2022/09/05 08:32:43;;;;;;;31.27;29.25;;;;;;;22.05;100.00;101979.53;5064953;28;20044;-77
2022/09/05 08:35:17;;;;;;;31.13;29.02;;;;;;;22.50;100.00;101973.81;5058689;28;20048;-78
2022/09/05 08:37:46;;;;;;;32.45;30.42;;;;;;;22.84;100.00;101970.88;5062221;28;20065;-81
2022/09/05 08:40:24;;;;;;;30.90;29.20;;;;;;;23.00;100.00;101966.47;5061961;28;20481;-81
2022/09/05 08:42:59;;;;;;;34.08;31.88;;;;;;;23.91;100.00;101976.25;5061704;28;20044;-78
2022/09/05 08:45:35;;;;;;;34.28;32.38;;;;;;;25.15;97.89;101970.78;5062078;28;20049;-80
2022/09/05 08:48:18;;;;;;;32.45;30.40;;;;;;;24.56;91.58;101965.84;5058488;28;20409;-78
2022/09/05 08:51:06;;;;;;;32.03;30.02;;;;;;;24.14;97.18;101974.97;5064222;28;20087;-82
2022/09/05 08:53:48;;;;;;;32.75;30.75;;;;;;;23.91;96.05;101976.25;5057215;28;20045;-81
2022/09/05 08:56:21;;;;;;;31.67;29.87;;;;;;;23.54;100.00;101977.94;5058281;28;20041;-78
2022/09/05 08:59:00;;;;;;;32.90;30.70;;;;;;;24.27;98.58;101976.34;5064222;28;20403;-78
2022/09/05 09:01:32;;;;;;;31.92;29.85;;;;;;;22.74;91.27;101971.63;5064250;28;20056;-78
2022/09/05 09:04:15;;;;;;;30.97;28.97;;;;;;;23.47;87.69;101960.25;5059485;28;20440;-79
2022/09/05 09:07:09;;;;;;;32.60;30.60;;;;;;;24.53;77.43;101964.50;5062908;28;20044;-77
2022/09/05 09:09:45;;;;;;;32.60;30.50;;;;;;;24.77;89.66;101970.22;5061365;28;20101;-81
2022/09/05 09:12:54;;;;;;;34.78;32.47;;;;;;;24.56;87.23;101968.56;5061253;28;20124;-81
2022/09/05 09:15:28;;;;;;;34.22;31.83;;;;;;;24.73;73.65;101962.91;5070322;28;20117;-85
2022/09/05 09:17:56;;;;;;;34.90;32.55;;;;;;;25.74;76.21;101963.84;5064842;28;20099;-81
2022/09/05 09:20:36;;;;;;;32.85;30.85;;;;;;;24.59;73.74;101963.41;5068778;28;20056;-82
2022/09/05 09:23:06;;;;;;;31.98;29.38;;;;;;;26.20;75.00;101960.91;5058390;28;20036;-79
2022/09/05 09:25:41;;;;;;;32.85;30.40;;;;;;;24.76;66.86;101965.06;5067290;28;20060;-83
2022/09/05 09:29:01;;;;;;;31.52;29.52;;;;;;;26.24;71.65;101949.19;5066860;28;20064;-82
2022/09/05 09:31:38;;;;;;;34.53;32.38;;;;;;;25.73;67.97;101956.78;5063607;28;20067;-79
2022/09/05 09:34:21;;;;;;;32.90;30.90;;;;;;;26.41;68.97;101954.22;5065486;28;20162;-80
2022/09/05 09:37:14;;;;;;;32.28;30.10;;;;;;;26.42;82.60;101963.25;5065377;28;20048;-79
2022/09/05 09:40:02;;;;;;;33.33;31.42;;;;;;;26.41;70.06;101958.88;5066803;28;20110;-82
2022/09/05 09:42:37;;;;;;;35.45;32.92;;;;;;;26.44;62.91;101959.13;5066662;28;20049;-82
2022/09/05 09:45:25;;;;;;;33.83;31.80;;;;;;;25.73;68.67;101956.78;5058049;28;20048;-80
2022/09/05 09:48:24;;;;;;;33.90;31.90;;;;;;;26.11;72.47;101959.88;5055630;28;20389;-79
2022/09/05 09:51:25;;;;;;;33.75;31.65;;;;;;;26.31;64.80;101956.22;5064138;28;20045;-81
2022/09/05 09:54:15;;;;;;;31.50;29.38;;;;;;;26.16;63.76;101954.41;5068879;28;20052;-80
2022/09/05 09:57:15;;;;;;;32.15;30.00;;;;;;;27.45;62.66;101950.38;5056931;28;20063;-82
2022/09/05 10:00:16;;;;;;;33.03;31.02;;;;;;;28.25;58.10;101949.63;5058037;28;20049;-80
2022/09/05 10:03:04;;;;;;;30.92;28.92;;;;;;;26.71;59.07;101944.25;5057220;28;20056;-80
2022/09/05 10:05:45;;;;;;;31.85;29.85;;;;;;;25.40;57.02;101952.78;5055740;28;20473;-82
2022/09/05 10:08:29;;;;;;;32.58;30.58;;;;;;;25.69;61.67;101945.63;5066349;28;20059;-80
2022/09/05 10:11:18;;;;;;;31.10;28.75;;;;;;;26.60;56.23;101942.72;5066348;28;20051;-79
2022/09/05 10:14:36;;;;;;;32.10;30.10;;;;;;;26.18;62.14;101952.22;5066050;28;20049;-82
2022/09/05 10:17:21;;;;;;;32.05;29.95;;;;;;;27.25;64.12;101942.41;5060257;28;20048;-80
2022/09/05 10:20:21;;;;;;;33.35;31.35;;;;;;;26.56;54.99;101941.63;5064415;28;20131;-78
2022/09/05 10:23:29;;;;;;;32.55;29.95;;;;;;;26.01;66.29;101942.50;5054731;28;20555;-83
2022/09/05 10:26:40;;;;;;;33.08;31.00;;;;;;;26.44;62.99;101939.25;5066260;28;20094;-80
2022/09/05 10:29:10;;;;;;;32.45;30.45;;;;;;;27.31;64.11;101944.78;5063995;28;20045;-78
2022/09/05 10:31:55;;;;;;;33.85;31.67;;;;;;;27.56;73.85;101946.41;5060582;28;20091;-80
2022/09/05 10:34:24;;;;;;;32.75;30.58;;;;;;;26.36;70.83;101934.41;5058065;28;20120;-81
2022/09/05 10:36:56;;;;;;;36.13;33.67;;;;;;;28.34;61.04;101935.31;5062935;28;20041;-80
2022/09/05 10:39:29;;;;;;;35.08;33.08;;;;;;;27.54;62.66;101931.47;5063400;28;20048;-78
2022/09/05 10:41:58;;;;;;;;;;;;;;;27.91;62.98;101929.94;5064242;28;20496;-80
2022/09/05 10:44:33;;;;;;;;;;;;;;;26.68;64.41;101923.00;5065594;28;19932;-80
2022/09/05 10:47:08;;;;;;;;;;;;;;;27.63;55.12;101916.06;5063360;28;19931;-81
2022/09/05 10:49:38;;;;;;;;;;;;;;;27.77;52.36;101916.94;5068780;28;19924;-81
2022/09/05 10:52:10;;;;;;;;;;;;;;;27.27;66.81;101918.41;5061611;28;19993;-80
2022/09/05 10:54:41;;;;;;;;;;;;;;;26.66;60.53;101919.78;5065797;28;19932;-81
2022/09/05 10:57:16;;;;;;;;;;;;;;;26.04;62.81;101920.16;5057266;28;19920;-77
2022/09/05 10:59:55;;;;;;;;;;;;;;;26.75;67.25;101914.50;5065009;28;20404;-77
2022/09/05 11:02:22;;;;;;;;;;;;;;;27.17;65.01;101911.13;5064308;28;19920;-80
2022/09/05 11:04:51;;;;;;;;;;;;;;;27.02;59.18;101906.63;5064244;28;19920;-81
2022/09/05 11:07:20;;;;;;;;;;;;;;;26.64;74.94;101900.97;5065391;28;20341;-80
2022/09/05 11:09:58;;;;;;;;;;;;;;;28.62;66.94;101893.31;5063449;28;19928;-80
2022/09/05 11:12:40;;;;;;;;;;;;;;;29.07;64.96;101893.63;5057396;28;19921;-77
2022/09/05 11:15:18;;;;;;;;;;;;;;;28.03;65.86;101889.34;5062208;28;19947;-80
2022/09/05 11:17:50;;;;;;;;;;;;;;;27.94;61.75;101893.84;5063357;28;20011;-81
2022/09/05 11:20:31;;;;;;;;;;;;;;;26.57;69.25;101888.81;5065974;28;19920;-79
2022/09/05 11:23:00;;;;;;;;;;;;;;;26.66;75.80;101887.91;5053319;28;20280;-80
2022/09/05 11:25:28;;;;;;;;;;;;;;;28.15;62.83;101875.25;5064664;28;19924;-82
2022/09/05 11:27:57;;;;;;;;;;;;;;;27.71;59.00;101881.84;5063905;28;19928;-78
2022/09/05 11:30:26;;;;;;;;;;;;;;;27.02;57.21;101876.66;5064381;28;19920;-78
2022/09/05 11:33:07;;;;;;;;;;;;;;;27.49;71.34;101874.22;5062656;28;20272;-77
2022/09/05 11:35:35;;;;;;;;;;;;;;;28.27;56.15;101854.53;5059759;28;20433;-76
2022/09/05 11:38:19;;;;;;;;;;;;;;;28.44;55.64;101859.50;5066078;28;19933;-80
2022/09/05 11:40:56;;;;;;;;;;;;;;;28.73;55.46;101858.44;5053932;28;19931;-81
2022/09/05 11:43:42;;;;;;;;;;;;;;;27.57;52.58;101852.56;5056187;28;19932;-79
2022/09/05 11:46:15;;;;;;;;;;;;;;;29.06;55.13;101839.25;5065364;28;19924;-78
2022/09/05 11:48:50;;;;;;;;;;;;;;;28.77;50.07;101837.59;5064413;28;19951;-86
2022/09/05 11:51:36;;;;;;;;;;;;;;;28.88;47.48;101838.22;5062464;28;19947;-78
2022/09/05 11:54:36;;;;;;;;;;;;;;;29.35;53.06;101834.28;5056581;28;19920;-80
2022/09/05 11:57:19;;;;;;;;;;;;;;;27.80;53.26;101848.16;5067774;28;19993;-77
2022/09/05 11:59:57;;;;;;;;;;;;;;;28.57;56.12;101840.72;5056188;28;20257;-77
2022/09/05 12:02:31;;;;;;;;;;;;;;;27.84;57.73;101838.28;5054527;28;19928;-81
2022/09/05 12:05:03;;;;;;;;;;;;;;;28.60;51.67;101840.91;5063816;28;19949;-78
2022/09/05 12:07:39;;;;;;;;;;;;;;;27.20;51.55;101839.66;5064443;28;19959;-82
2022/09/05 12:10:14;;;;;;;;;;;;;;;28.37;56.08;101828.16;5067355;28;19921;-79
2022/09/05 12:12:48;;;;;;;;;;;;;;;28.27;51.30;101824.50;5061650;28;19928;-80
2022/09/05 12:15:23;;;;;;;;;;;;;;;28.96;52.09;101826.56;5057983;28;19932;-79
2022/09/05 12:17:59;;;;;;;;;;;;;;;29.04;50.73;101825.88;5060837;28;19920;-78
2022/09/05 12:20:29;;;;;;;;;;;;;;;28.58;51.29;101821.25;5065343;28;19950;-80
2022/09/05 12:22:57;;;;;;;;;;;;;;;29.56;49.70;101820.97;5062608;28;19920;-79